Jonesboro Municipal Airport
KJBR : now visible

Airfield :











YOU CAN JOIN US ON...

 
LOGIN :

Register | Disclaimer

   EN    FR    IT 

 









Legend :    VFR   Marginal VFR   IFR   Intensive IFR   Very Intensive IFR
Visi :
Ceiling :
>= 8 km
>= 3000ft
5 to 8 km
1000 to 3000 ft
1500m to 5 km
500 to 1000 ft
800 to 1500m
200 to 500 ft
< 800m
< 200 ft
Symbols :   Thunderstorms  Fog  Heavy snow  Heavy precipitations  Wind > 20 kt






- Airport Elevation : 262 ft
- IATA code : JBR


KJBR - Jonesboro Municipal

CURRENT METAR :
  • 231826Z AUTO 05007KT 10SM VCTS -RA FEW049 SCT070 BKN085 26/25 A3011 RMK AO2 RAB01 TSB1754E10 P0007 T02610250 $

EXPIRED METARs :
  • 231818Z AUTO 04009KT 10SM -RA FEW032 SCT048 BKN090 26/24 A3010 RMK AO2 RAB01 TSB1754E10 P0007 T02610239 $
  • 231811Z AUTO 18006KT 2SM -RA FEW033 SCT048 BKN075 27/23 A3011 RMK AO2 RAB01 TSB1754E10 P0007 T02670233 $
  • 231803Z AUTO VRB03KT 1 1/2SM +TSRA SCT035 BKN080 OVC090 26/23 A3011 RMK AO2 RAB01 TSB1754 P0007 T02610233 $
  • 231753Z AUTO 24009KT 10SM FEW028 BKN041 OVC090 28/23 A3011 RMK AO2 RAB21E47 SLP194 P0000 60000 T02780233 10311 20233 56009 $
  • 231653Z AUTO 11005KT 10SM FEW035 31/23 A3012 RMK AO2 SLP195 T03060233 $
  • 231553Z AUTO 08004KT 10SM CLR 30/24 A3013 RMK AO2 SLP199 T03000244 $

TAF KJBR
Valid from the 23 at 18:00 until the 24 at 18:00 UTC


231732Z 2318/2418 VRB03KT P6SM VCTS FEW045CB BKN050
TEMPO 2318/2321 VRB10KT 2SM TSRA BKN040CB
FM240000 VRB02KT P6SM FEW250
FM241500 23006KT P6SM SCT035
KZME FIR / North America



MET'MAP, your aeronautical weather chart ! - Copyright ORBIFLY December 2007 - Disclaimer

ORBIFLY MET'MAP TEAM :

Programming & Development : Alexandra Zaïnal
Concept & original design : Baudouin d'Aumeries
Assistance for programming : Marc-Olivier Méhu
Technical & hardware support : Manuel Goepfert

Contact : metmap@orbifly.com




SOURCES & CREDITS :

   NOAA       Earth
Advisory